createdAt,value
2018-08-30T00:01:26.003Z,3.60
2018-08-30T00:03:56.769Z,4.63
2018-08-30T00:06:26.698Z,3.77
2018-08-30T00:08:56.623Z,3.27
2018-08-30T00:11:26.546Z,4.10
2018-08-30T00:13:56.495Z,3.60
2018-08-30T00:16:26.423Z,3.20
2018-08-30T00:18:56.326Z,5.40
2018-08-30T00:21:26.243Z,3.70
2018-08-30T00:23:56.199Z,4.27
2018-08-30T00:26:26.165Z,3.17
2018-08-30T00:28:56.054Z,3.27
2018-08-30T00:31:25.999Z,2.93
2018-08-30T00:33:55.902Z,3.47
2018-08-30T00:36:25.772Z,3.23
2018-08-30T00:38:55.632Z,3.47
2018-08-30T00:41:25.613Z,3.40
2018-08-30T00:43:55.426Z,2.97
2018-08-30T00:46:25.328Z,3.30
2018-08-30T00:48:55.200Z,4.20
2018-08-30T00:51:25.072Z,3.90
2018-08-30T00:53:54.955Z,3.27
2018-08-30T00:56:24.830Z,3.57
2018-08-30T00:58:54.685Z,3.87
2018-08-30T01:01:24.620Z,3.53
2018-08-30T01:03:54.507Z,3.63
2018-08-30T01:06:24.496Z,5.23
2018-08-30T01:08:54.368Z,4.33
2018-08-30T01:11:24.246Z,3.70
2018-08-30T01:13:54.119Z,4.10
2018-08-30T01:16:23.987Z,5.30
2018-08-30T01:18:53.853Z,6.07
2018-08-30T01:21:23.756Z,5.17
2018-08-30T01:23:53.626Z,5.60
2018-08-30T01:26:23.495Z,6.70
2018-08-30T01:28:53.380Z,7.37
2018-08-30T01:31:23.266Z,7.00
2018-08-30T01:33:53.122Z,6.07
2018-08-30T01:36:23.168Z,5.67
2018-08-30T01:38:53.017Z,5.73
2018-08-30T01:41:22.913Z,8.23
2018-08-30T01:43:52.802Z,7.40
2018-08-30T01:46:22.667Z,9.23
2018-08-30T01:48:52.549Z,9.57
2018-08-30T01:51:26.321Z,7.57
2018-08-30T01:53:56.173Z,7.57
2018-08-30T01:56:26.057Z,8.17
2018-08-30T01:58:55.934Z,8.50
2018-08-30T02:01:25.815Z,11.20
2018-08-30T02:03:55.705Z,11.30
2018-08-30T02:06:25.622Z,9.93
2018-08-30T02:08:55.516Z,10.37
2018-08-30T02:11:25.404Z,9.43
2018-08-30T02:13:55.278Z,10.80
2018-08-30T02:16:25.151Z,12.20
2018-08-30T02:18:55.040Z,13.73
2018-08-30T02:21:24.963Z,14.73
2018-08-30T02:23:55.598Z,13.07
2018-08-30T02:26:25.479Z,13.07
2018-08-30T02:28:55.362Z,13.67
2018-08-30T02:31:25.234Z,15.87
2018-08-30T02:33:55.127Z,12.97
2018-08-30T02:36:25.043Z,14.20
2018-08-30T02:38:54.939Z,13.10
2018-08-30T02:41:24.821Z,14.13
2018-08-30T02:43:54.718Z,14.30
2018-08-30T02:46:24.596Z,13.23
2018-08-30T02:48:54.525Z,13.27
2018-08-30T02:51:24.418Z,12.73
2018-08-30T02:53:54.927Z,13.70
2018-08-30T02:56:24.802Z,12.80
2018-08-30T02:58:54.721Z,15.70
2018-08-30T03:01:24.605Z,15.00
2018-08-30T03:03:54.508Z,13.93
2018-08-30T03:06:24.398Z,15.37
2018-08-30T03:08:54.266Z,14.87
2018-08-30T03:11:24.150Z,14.40
2018-08-30T03:13:54.144Z,15.33
2018-08-30T03:16:24.003Z,14.20
2018-08-30T03:18:53.875Z,13.13
2018-08-30T03:21:23.766Z,14.33
2018-08-30T03:23:53.639Z,13.10
2018-08-30T03:26:24.773Z,13.93
2018-08-30T03:28:54.738Z,13.23
2018-08-30T03:31:24.630Z,13.27
2018-08-30T03:33:54.485Z,13.07
2018-08-30T03:36:24.371Z,14.57
2018-08-30T03:38:54.246Z,11.80
2018-08-30T03:41:24.128Z,12.20
2018-08-30T03:43:54.614Z,11.33
2018-08-30T03:46:24.490Z,11.80
2018-08-30T03:48:54.366Z,10.83
2018-08-30T03:51:24.250Z,10.07
2018-08-30T03:53:54.116Z,10.17
2018-08-30T03:56:24.065Z,10.77
2018-08-30T03:58:54.314Z,9.27
2018-08-30T04:01:24.231Z,9.13
2018-08-30T04:03:54.102Z,9.60
2018-08-30T04:06:23.974Z,9.83
2018-08-30T04:08:53.827Z,9.07
2018-08-30T04:11:23.698Z,8.27
2018-08-30T04:13:53.811Z,8.80
2018-08-30T04:16:30.504Z,8.30
2018-08-30T04:19:05.939Z,7.50
2018-08-30T04:21:36.686Z,8.53
2018-08-30T04:24:08.142Z,7.27
2018-08-30T04:26:38.010Z,7.27
2018-08-30T04:29:07.882Z,7.70
2018-08-30T04:31:37.844Z,8.40
2018-08-30T04:34:07.674Z,7.50
2018-08-30T04:36:37.559Z,7.97
2018-08-30T04:39:09.329Z,7.30
2018-08-30T04:41:39.242Z,7.43
2018-08-30T04:44:09.127Z,9.17
2018-08-30T04:46:38.987Z,7.47
2018-08-30T04:49:08.851Z,7.90
2018-08-30T04:51:38.723Z,6.50
2018-08-30T04:54:08.587Z,6.53
2018-08-30T04:56:38.486Z,6.87
2018-08-30T04:59:08.353Z,7.00
2018-08-30T05:01:38.344Z,6.87
2018-08-30T05:04:08.212Z,7.13
2018-08-30T05:06:38.074Z,8.37
2018-08-30T05:09:10.947Z,6.67
2018-08-30T05:11:41.094Z,7.93
2018-08-30T05:14:10.965Z,7.43
2018-08-30T05:16:41.057Z,6.77
2018-08-30T05:19:10.735Z,7.00
2018-08-30T05:21:40.610Z,7.03
2018-08-30T05:24:10.474Z,7.07
2018-08-30T05:26:40.359Z,7.53
2018-08-30T05:29:10.230Z,6.87
2018-08-30T05:31:40.110Z,6.03
2018-08-30T05:34:09.982Z,6.77
2018-08-30T05:36:39.918Z,5.67
2018-08-30T05:39:09.890Z,7.13
2018-08-30T05:41:39.758Z,7.23
2018-08-30T05:44:09.614Z,7.23
2018-08-30T05:46:39.535Z,6.40
2018-08-30T05:49:09.464Z,5.87
2018-08-30T05:51:39.371Z,5.57
2018-08-30T05:54:09.250Z,6.10
2018-08-30T05:56:39.123Z,5.60
2018-08-30T05:59:09.002Z,6.10
2018-08-30T06:01:38.866Z,5.60
2018-08-30T06:04:09.044Z,5.37
2018-08-30T06:06:38.908Z,6.20
2018-08-30T06:09:08.786Z,6.57
2018-08-30T06:11:38.658Z,7.03
2018-08-30T06:14:08.635Z,5.47
2018-08-30T06:16:38.502Z,7.53
2018-08-30T06:19:08.432Z,6.43
2018-08-30T06:21:38.322Z,7.40
2018-08-30T06:24:08.189Z,6.07
2018-08-30T06:26:38.209Z,7.43
2018-08-30T06:29:08.475Z,7.23
2018-08-30T06:31:38.341Z,6.77
2018-08-30T06:34:08.280Z,9.20
2018-08-30T06:36:38.073Z,8.47
2018-08-30T06:39:08.299Z,7.77
2018-08-30T06:41:38.175Z,7.90
2018-08-30T06:44:08.043Z,7.47
2018-08-30T06:46:37.938Z,8.37
2018-08-30T06:49:08.349Z,9.27
2018-08-30T06:51:38.075Z,8.43
2018-08-30T06:54:07.959Z,9.60
2018-08-30T06:56:37.981Z,8.73
2018-08-30T06:59:07.863Z,8.97
2018-08-30T07:01:38.014Z,9.67
2018-08-30T07:04:08.733Z,18.63
2018-08-30T07:06:38.613Z,8.57
2018-08-30T07:09:10.880Z,8.40
2018-08-30T07:11:40.904Z,9.97
2018-08-30T07:14:11.032Z,8.97
2018-08-30T07:16:40.894Z,8.70
2018-08-30T07:19:11.034Z,9.43
2018-08-30T07:21:40.902Z,8.70
2018-08-30T07:24:10.788Z,10.30
2018-08-30T07:26:40.639Z,11.07
2018-08-30T07:29:10.543Z,9.07
2018-08-30T07:31:40.403Z,9.37
2018-08-30T07:34:10.357Z,8.97
2018-08-30T07:36:40.222Z,8.57
2018-08-30T07:39:12.167Z,8.23
2018-08-30T07:41:42.165Z,8.50
2018-08-30T07:44:12.894Z,8.70
2018-08-30T07:46:42.746Z,9.97
2018-08-30T07:49:12.608Z,10.23
2018-08-30T07:51:42.493Z,11.20
2018-08-30T07:54:12.385Z,11.37
2018-08-30T07:56:42.267Z,9.50
2018-08-30T07:59:12.464Z,9.70
2018-08-30T08:01:42.462Z,11.10
2018-08-30T08:04:12.343Z,10.93
2018-08-30T08:06:42.722Z,10.27
2018-08-30T08:09:12.727Z,10.60
2018-08-30T08:11:42.599Z,10.33
2018-08-30T08:14:12.489Z,10.50
2018-08-30T08:16:43.019Z,11.77
2018-08-30T08:19:13.009Z,10.37
2018-08-30T08:21:42.791Z,11.87
2018-08-30T08:24:12.797Z,12.73
2018-08-30T08:26:42.674Z,10.80
2018-08-30T08:29:12.554Z,11.13
2018-08-30T08:31:42.495Z,12.07
2018-08-30T08:34:12.423Z,11.00
2018-08-30T08:36:42.314Z,11.47
2018-08-30T08:39:12.284Z,13.43
2018-08-30T08:41:42.245Z,12.53
2018-08-30T08:44:12.135Z,13.27
2018-08-30T08:46:42.028Z,11.97
2018-08-30T08:49:11.938Z,11.63
2018-08-30T08:51:41.930Z,12.27
2018-08-30T08:54:11.818Z,11.77
2018-08-30T08:56:41.768Z,12.20
2018-08-30T08:59:11.705Z,11.53
2018-08-30T09:01:41.627Z,12.40
2018-08-30T09:04:11.545Z,12.33
2018-08-30T09:06:41.508Z,11.27
2018-08-30T09:09:12.443Z,11.07
2018-08-30T09:11:43.134Z,11.90
2018-08-30T09:14:13.515Z,11.00
2018-08-30T09:16:43.476Z,10.93
2018-08-30T09:19:13.368Z,12.37
2018-08-30T09:21:45.341Z,11.50
2018-08-30T09:24:15.355Z,13.93
2018-08-30T09:26:45.298Z,12.23
2018-08-30T09:29:15.164Z,12.00
2018-08-30T09:31:45.034Z,11.80
2018-08-30T09:34:14.944Z,10.47
2018-08-30T09:36:44.823Z,10.73
2018-08-30T09:39:14.768Z,11.93
2018-08-30T09:41:44.646Z,11.47
2018-08-30T09:44:14.530Z,10.73
2018-08-30T09:46:44.408Z,11.80
2018-08-30T09:49:14.320Z,10.97
2018-08-30T09:51:44.197Z,11.47
2018-08-30T09:54:14.100Z,10.83
2018-08-30T09:56:44.037Z,11.50
2018-08-30T09:59:13.963Z,11.90
2018-08-30T10:01:50.064Z,11.57
2018-08-30T10:04:20.405Z,13.90
2018-08-30T10:06:50.297Z,11.43
2018-08-30T10:09:20.247Z,11.33
2018-08-30T10:11:50.140Z,11.57
2018-08-30T10:14:20.203Z,12.73
2018-08-30T10:16:50.116Z,12.77
2018-08-30T10:19:20.003Z,11.77
2018-08-30T10:21:51.079Z,11.93
2018-08-30T10:24:27.754Z,12.63
2018-08-30T10:26:57.708Z,12.93
2018-08-30T10:29:27.627Z,13.30
2018-08-30T10:31:57.502Z,12.00
2018-08-30T10:34:27.419Z,12.03
2018-08-30T10:36:57.343Z,11.60
2018-08-30T10:39:27.244Z,11.67
2018-08-30T10:41:57.282Z,12.13
2018-08-30T10:44:27.173Z,13.20
2018-08-30T10:46:57.035Z,10.97
2018-08-30T10:49:27.017Z,11.90
2018-08-30T10:51:56.798Z,11.83
2018-08-30T10:54:26.696Z,11.10
2018-08-30T10:56:56.648Z,12.40
2018-08-30T10:59:26.525Z,12.33
2018-08-30T11:01:56.405Z,13.00
2018-08-30T11:04:26.411Z,12.47
2018-08-30T11:06:56.834Z,12.47
2018-08-30T11:09:26.718Z,12.37
2018-08-30T11:11:56.627Z,12.47
2018-08-30T11:14:26.514Z,15.50
2018-08-30T11:16:56.695Z,12.13
2018-08-30T11:19:26.640Z,13.43
2018-08-30T11:21:56.515Z,12.03
2018-08-30T11:24:26.439Z,12.17
2018-08-30T11:26:56.768Z,11.60
2018-08-30T11:29:27.279Z,11.93
2018-08-30T11:31:57.146Z,12.33
2018-08-30T11:34:27.145Z,10.93
2018-08-30T11:36:57.139Z,11.90
2018-08-30T11:39:27.034Z,12.10
2018-08-30T11:41:56.927Z,12.13
2018-08-30T11:44:26.807Z,12.03
2018-08-30T11:46:56.703Z,13.37
2018-08-30T11:49:26.588Z,13.67
2018-08-30T11:51:56.499Z,13.80
2018-08-30T11:54:26.375Z,12.60
2018-08-30T11:56:56.267Z,12.57
2018-08-30T11:59:26.701Z,13.00
2018-08-30T12:01:56.801Z,12.00
2018-08-30T12:04:26.673Z,12.37
2018-08-30T12:06:56.627Z,12.60
2018-08-30T12:09:26.897Z,12.73
2018-08-30T12:11:56.775Z,12.87
2018-08-30T12:14:26.652Z,11.90
2018-08-30T12:16:56.539Z,13.47
2018-08-30T12:19:26.426Z,12.97
2018-08-30T12:21:56.313Z,12.80
2018-08-30T12:24:26.207Z,12.60
2018-08-30T12:26:56.092Z,13.43
2018-08-30T12:29:25.974Z,12.20
2018-08-30T12:31:55.916Z,13.07
2018-08-30T12:34:25.887Z,14.20
2018-08-30T12:36:55.746Z,13.60
2018-08-30T12:39:25.557Z,13.33
2018-08-30T12:41:55.452Z,13.73
2018-08-30T12:44:25.442Z,13.37
2018-08-30T12:46:55.258Z,12.70
2018-08-30T12:49:25.154Z,13.40
2018-08-30T12:51:55.138Z,13.03
2018-08-30T12:54:24.943Z,12.10
2018-08-30T12:56:54.758Z,13.43
2018-08-30T12:59:30.168Z,15.03
2018-08-30T13:02:00.118Z,15.80
2018-08-30T13:04:30.025Z,14.40
2018-08-30T13:06:59.968Z,14.70
2018-08-30T13:09:29.851Z,14.43
2018-08-30T13:12:00.603Z,13.63
2018-08-30T13:14:30.471Z,13.20
2018-08-30T13:17:00.376Z,14.03
2018-08-30T13:19:30.436Z,12.20
2018-08-30T13:22:00.345Z,14.00
2018-08-30T13:24:30.038Z,14.90
2018-08-30T13:26:59.948Z,13.30
2018-08-30T13:29:29.920Z,13.50
2018-08-30T13:31:59.885Z,13.93
2018-08-30T13:34:29.614Z,13.03
2018-08-30T13:36:59.927Z,13.33
2018-08-30T13:39:29.604Z,13.93
2018-08-30T13:41:59.745Z,13.03
2018-08-30T13:44:29.573Z,13.33
2018-08-30T13:46:59.357Z,14.07
2018-08-30T13:49:28.953Z,12.03
2018-08-30T13:51:59.121Z,12.63
2018-08-30T13:54:28.848Z,14.00
2018-08-30T13:56:58.974Z,12.97
2018-08-30T13:59:29.075Z,12.70
2018-08-30T14:01:58.735Z,12.73
2018-08-30T14:04:28.710Z,13.03
2018-08-30T14:06:58.567Z,12.37
2018-08-30T14:09:28.668Z,12.43
2018-08-30T14:11:58.496Z,11.57
2018-08-30T14:14:28.286Z,11.83
2018-08-30T14:16:58.054Z,12.30
2018-08-30T14:19:27.940Z,14.13
2018-08-30T14:21:57.799Z,14.43
2018-08-30T14:24:27.681Z,12.63
2018-08-30T14:26:57.775Z,12.57
2018-08-30T14:29:27.447Z,11.87
2018-08-30T14:31:57.712Z,11.47
2018-08-30T14:34:27.583Z,12.03
2018-08-30T14:36:57.465Z,12.00
2018-08-30T14:39:27.507Z,12.20
2018-08-30T14:41:57.420Z,12.07
2018-08-30T14:44:27.365Z,12.30
2018-08-30T14:46:57.243Z,11.47
2018-08-30T14:49:27.158Z,11.23
2018-08-30T14:51:57.054Z,11.97
2018-08-30T14:54:27.008Z,11.50
2018-08-30T14:56:56.814Z,12.57
2018-08-30T14:59:26.790Z,11.13
2018-08-30T15:01:56.618Z,11.47
2018-08-30T15:04:26.546Z,12.10
2018-08-30T15:06:56.430Z,11.83
2018-08-30T15:09:26.323Z,11.73
2018-08-30T15:11:56.286Z,11.37
2018-08-30T15:14:26.222Z,12.93
2018-08-30T15:16:56.103Z,11.77
2018-08-30T15:19:26.901Z,10.57
2018-08-30T15:21:56.819Z,10.87
2018-08-30T15:24:27.215Z,11.87
2018-08-30T15:26:57.331Z,11.00
2018-08-30T15:29:27.830Z,11.47
2018-08-30T15:31:58.036Z,11.70
2018-08-30T15:34:28.299Z,10.77
2018-08-30T15:36:58.171Z,10.53
2018-08-30T15:39:28.759Z,10.67
2018-08-30T15:41:58.620Z,12.50
2018-08-30T15:44:28.490Z,10.17
2018-08-30T15:46:58.452Z,11.63
2018-08-30T15:49:28.357Z,13.27
2018-08-30T15:51:58.270Z,10.50
2018-08-30T15:54:28.146Z,10.07
2018-08-30T15:56:58.014Z,10.13
2018-08-30T15:59:27.983Z,10.20
2018-08-30T16:01:57.778Z,10.37
2018-08-30T16:04:27.721Z,9.67
2018-08-30T16:07:01.962Z,12.10
2018-08-30T16:09:32.578Z,10.07
2018-08-30T16:12:02.532Z,10.50
2018-08-30T16:14:32.409Z,13.07
2018-08-30T16:17:03.481Z,12.73
2018-08-30T16:19:33.147Z,12.10
2018-08-30T16:22:03.019Z,11.40
2018-08-30T16:24:32.884Z,13.03
2018-08-30T16:27:02.749Z,10.83
2018-08-30T16:29:32.725Z,11.67
2018-08-30T16:32:02.578Z,11.57
2018-08-30T16:34:32.478Z,9.77
2018-08-30T16:37:02.428Z,11.47
2018-08-30T16:39:32.283Z,10.13
2018-08-30T16:42:02.142Z,9.50
2018-08-30T16:44:31.991Z,9.90
2018-08-30T16:47:01.863Z,10.70
2018-08-30T16:49:31.743Z,10.30
2018-08-30T16:52:01.602Z,10.93
2018-08-30T16:54:31.459Z,9.57
2018-08-30T16:57:01.398Z,9.43
2018-08-30T16:59:31.256Z,11.77
2018-08-30T17:02:01.156Z,9.93
2018-08-30T17:04:31.011Z,9.27
2018-08-30T17:07:00.858Z,9.43
2018-08-30T17:09:30.718Z,9.37
2018-08-30T17:12:00.568Z,9.83
2018-08-30T17:14:30.490Z,8.53
2018-08-30T17:17:00.500Z,9.10
2018-08-30T17:19:32.380Z,8.50
2018-08-30T17:22:02.238Z,7.83
2018-08-30T17:24:32.159Z,8.93
2018-08-30T17:27:02.251Z,13.03
2018-08-30T17:29:32.161Z,9.33
2018-08-30T17:32:02.050Z,10.80
2018-08-30T17:34:31.978Z,8.53
2018-08-30T17:37:01.895Z,8.13
2018-08-30T17:39:31.724Z,8.63
2018-08-30T17:42:01.579Z,8.97
2018-08-30T17:44:31.506Z,7.83
2018-08-30T17:47:01.411Z,7.97
2018-08-30T17:49:37.808Z,7.87
2018-08-30T17:52:07.687Z,8.63
2018-08-30T17:54:37.555Z,8.37
2018-08-30T17:57:07.420Z,8.67
2018-08-30T17:59:38.057Z,8.20
2018-08-30T18:02:07.938Z,7.83
2018-08-30T18:04:37.894Z,8.10
2018-08-30T18:07:07.884Z,7.87
2018-08-30T18:09:37.980Z,7.13
2018-08-30T18:12:07.955Z,8.73
2018-08-30T18:14:37.981Z,9.63
2018-08-30T18:17:07.942Z,7.90
2018-08-30T18:19:37.850Z,9.00
2018-08-30T18:22:07.767Z,10.40
2018-08-30T18:24:37.827Z,9.23
2018-08-30T18:27:07.841Z,8.13
2018-08-30T18:29:37.772Z,11.10
2018-08-30T18:32:07.641Z,8.03
2018-08-30T18:34:37.555Z,8.07
2018-08-30T18:37:07.587Z,8.43
2018-08-30T18:39:37.479Z,12.80
2018-08-30T18:42:07.477Z,7.77
2018-08-30T18:44:37.958Z,11.27
2018-08-30T18:47:08.159Z,8.67
2018-08-30T18:49:38.181Z,9.17
2018-08-30T18:52:08.038Z,9.70
2018-08-30T18:54:38.209Z,10.67
2018-08-30T18:57:08.699Z,8.43
2018-08-30T18:59:39.393Z,8.50
2018-08-30T19:02:09.291Z,9.57
2018-08-30T19:04:39.166Z,9.77
2018-08-30T19:07:09.811Z,8.43
2018-08-30T19:09:39.668Z,7.47
2018-08-30T19:12:09.527Z,12.67
2018-08-30T19:14:39.398Z,7.73
2018-08-30T19:17:14.463Z,8.10
2018-08-30T19:19:44.306Z,8.43
2018-08-30T19:22:14.159Z,9.47
2018-08-30T19:24:49.300Z,8.80
2018-08-30T19:27:19.163Z,7.73
2018-08-30T19:29:54.419Z,10.23
2018-08-30T19:32:24.289Z,9.60
2018-08-30T19:34:57.147Z,10.30
2018-08-30T19:37:27.030Z,11.03
2018-08-30T19:39:56.898Z,8.43
2018-08-30T19:42:26.811Z,10.00
2018-08-30T19:44:56.664Z,11.80
2018-08-30T19:47:26.527Z,9.70
2018-08-30T19:49:56.375Z,9.63
2018-08-30T19:52:26.256Z,7.87
2018-08-30T19:54:56.157Z,9.00
2018-08-30T19:57:25.988Z,11.70
2018-08-30T19:59:55.839Z,8.10
2018-08-30T20:02:25.737Z,8.43
2018-08-30T20:04:55.567Z,8.60
2018-08-30T20:07:25.504Z,8.50
2018-08-30T20:09:55.326Z,10.13
2018-08-30T20:12:25.223Z,8.50
2018-08-30T20:14:55.074Z,8.00
2018-08-30T20:17:25.092Z,9.03
2018-08-30T20:19:54.939Z,8.03
2018-08-30T20:22:24.836Z,7.70
2018-08-30T20:24:54.717Z,8.57
2018-08-30T20:27:24.623Z,8.60
2018-08-30T20:29:55.053Z,10.00
2018-08-30T20:32:25.022Z,9.13
2018-08-30T20:34:54.942Z,9.43
2018-08-30T20:37:24.799Z,8.40
2018-08-30T20:39:54.654Z,8.37
2018-08-30T20:42:24.514Z,9.43
2018-08-30T20:44:54.358Z,8.03
2018-08-30T20:47:24.220Z,7.23
2018-08-30T20:49:54.259Z,7.57
2018-08-30T20:52:24.124Z,6.67
2018-08-30T20:54:53.966Z,5.93
2018-08-30T20:57:23.830Z,7.23
2018-08-30T20:59:53.699Z,6.67
2018-08-30T21:02:23.575Z,7.97
2018-08-30T21:04:53.431Z,7.10
2018-08-30T21:07:23.367Z,7.33
2018-08-30T21:09:53.202Z,6.37
2018-08-30T21:12:23.058Z,6.60
2018-08-30T21:14:52.970Z,7.30
2018-08-30T21:17:22.854Z,7.10
2018-08-30T21:19:52.708Z,4.30
2018-08-30T21:22:22.562Z,4.27
2018-08-30T21:24:52.410Z,6.13
2018-08-30T21:27:22.334Z,4.33
2018-08-30T21:29:52.189Z,6.03
2018-08-30T21:32:22.043Z,6.50
2018-08-30T21:34:52.403Z,4.10
2018-08-30T21:37:22.257Z,3.17
2018-08-30T21:39:52.107Z,4.93
2018-08-30T21:42:21.980Z,3.70
2018-08-30T21:44:51.818Z,4.63
2018-08-30T21:47:21.677Z,6.03
2018-08-30T21:49:51.516Z,5.90
2018-08-30T21:52:21.410Z,5.37
2018-08-30T21:54:52.735Z,3.50
2018-08-30T21:57:22.594Z,7.80
2018-08-30T21:59:52.444Z,5.87
2018-08-30T22:02:22.336Z,5.23
2018-08-30T22:04:52.186Z,3.70
2018-08-30T22:07:22.047Z,6.97
2018-08-30T22:09:51.899Z,5.73
2018-08-30T22:12:21.753Z,3.27
2018-08-30T22:14:51.682Z,3.90
2018-08-30T22:17:21.554Z,5.30
2018-08-30T22:19:51.407Z,5.30
2018-08-30T22:22:21.258Z,11.47
2018-08-30T22:24:51.111Z,3.83
2018-08-30T22:27:20.964Z,5.47
2018-08-30T22:29:50.801Z,4.60
2018-08-30T22:32:20.658Z,4.23
2018-08-30T22:34:50.599Z,6.30
2018-08-30T22:37:20.448Z,4.00
2018-08-30T22:39:50.317Z,6.33
2018-08-30T22:42:20.225Z,3.73
2018-08-30T22:44:50.071Z,4.37
2018-08-30T22:47:19.939Z,8.37
2018-08-30T22:49:49.794Z,4.13
2018-08-30T22:52:19.702Z,4.50
2018-08-30T22:54:49.567Z,3.77
2018-08-30T22:57:19.433Z,5.13
2018-08-30T22:59:49.279Z,6.77
2018-08-30T23:02:19.148Z,4.37
2018-08-30T23:04:49.014Z,3.37
2018-08-30T23:07:18.860Z,3.97
2018-08-30T23:09:48.710Z,6.40
2018-08-30T23:12:18.626Z,6.47
2018-08-30T23:14:48.483Z,3.17
2018-08-30T23:17:18.327Z,7.43
2018-08-30T23:19:48.191Z,6.87
2018-08-30T23:22:18.048Z,4.23
2018-08-30T23:24:47.908Z,4.13
2018-08-30T23:27:17.748Z,4.20
2018-08-30T23:29:47.594Z,3.87
2018-08-30T23:32:17.467Z,3.40
2018-08-30T23:34:47.977Z,4.40
2018-08-30T23:37:17.826Z,4.23
2018-08-30T23:39:47.678Z,3.60
2018-08-30T23:42:17.549Z,19.70
2018-08-30T23:44:47.407Z,4.43
2018-08-30T23:47:17.256Z,5.03
2018-08-30T23:49:47.115Z,3.97
2018-08-30T23:52:16.959Z,4.97
2018-08-30T23:54:46.802Z,3.97
2018-08-30T23:57:23.426Z,21.83
